createdAt,value
2023-07-10T00:03:25.021Z,21.49
2023-07-10T00:08:18.205Z,21.53
2023-07-10T00:13:13.242Z,21.67
2023-07-10T00:18:12.885Z,22.16
2023-07-10T00:23:07.477Z,22.42
2023-07-10T00:28:00.601Z,22.75
2023-07-10T00:32:56.257Z,22.75
2023-07-10T00:38:02.004Z,22.95
2023-07-10T00:43:01.988Z,22.76
2023-07-10T00:48:12.804Z,22.62
2023-07-10T00:53:14.908Z,22.36
2023-07-10T00:58:33.736Z,22.32
2023-07-10T01:03:27.190Z,22.19
2023-07-10T01:08:20.474Z,22.05
2023-07-10T01:13:15.030Z,21.71
2023-07-10T01:18:11.335Z,21.82
2023-07-10T01:23:06.593Z,21.67
2023-07-10T01:27:59.840Z,21.70
2023-07-10T01:32:56.673Z,21.77
2023-07-10T01:37:50.002Z,21.63
2023-07-10T01:42:44.687Z,21.68
2023-07-10T01:47:37.919Z,21.57
2023-07-10T01:52:31.121Z,21.39
2023-07-10T01:57:24.896Z,21.43
2023-07-10T02:02:19.668Z,21.47
2023-07-10T02:07:13.049Z,21.23
2023-07-10T02:12:06.902Z,21.37
2023-07-10T02:17:00.239Z,21.32
2023-07-10T02:21:55.199Z,21.39
2023-07-10T02:26:48.424Z,21.27
2023-07-10T02:31:41.647Z,21.39
2023-07-10T02:36:35.588Z,21.19
2023-07-10T02:41:30.186Z,21.30
2023-07-10T02:46:23.310Z,21.21
2023-07-10T02:51:16.937Z,21.10
2023-07-10T02:56:10.061Z,21.06
2023-07-10T03:01:05.102Z,21.20
2023-07-10T03:06:00.262Z,20.93
2023-07-10T03:11:04.098Z,21.35
2023-07-10T03:16:02.188Z,21.37
2023-07-10T03:20:57.118Z,21.29
2023-07-10T03:25:50.221Z,21.32
2023-07-10T03:30:43.644Z,21.30
2023-07-10T03:35:36.864Z,21.35
2023-07-10T03:40:32.593Z,21.46
2023-07-10T03:45:25.874Z,21.37
2023-07-10T03:50:21.750Z,21.21
2023-07-10T03:55:14.958Z,21.01
2023-07-10T04:00:10.780Z,21.63
2023-07-10T04:05:07.818Z,21.81
2023-07-10T04:10:01.231Z,21.54
2023-07-10T04:14:57.002Z,21.61
2023-07-10T04:19:52.025Z,22.09
2023-07-10T04:24:45.360Z,22.20
2023-07-10T04:29:38.739Z,21.73
2023-07-10T04:34:31.937Z,22.43
2023-07-10T04:39:26.800Z,22.57
2023-07-10T04:44:20.168Z,22.21
2023-07-10T04:49:13.466Z,22.34
2023-07-10T04:54:06.861Z,22.95
2023-07-10T04:59:04.579Z,22.61
2023-07-10T05:03:58.461Z,23.17
2023-07-10T05:08:55.821Z,23.18
2023-07-10T05:13:49.186Z,23.17
2023-07-10T05:18:43.922Z,23.14
2023-07-10T05:23:38.034Z,23.72
2023-07-10T05:28:31.873Z,23.88
2023-07-10T05:33:28.991Z,23.68
2023-07-10T05:38:26.114Z,24.20
2023-07-10T05:43:19.418Z,24.26
2023-07-10T05:48:13.055Z,24.36
2023-07-10T05:53:07.326Z,24.28
2023-07-10T05:58:02.065Z,24.34
2023-07-10T06:02:57.237Z,24.32
2023-07-10T06:07:53.471Z,24.70
2023-07-10T06:12:46.785Z,24.60
2023-07-10T06:17:41.480Z,24.75
2023-07-10T06:22:34.927Z,24.43
2023-07-10T06:27:28.461Z,25.07
2023-07-10T06:32:21.974Z,25.20
2023-07-10T06:37:16.600Z,25.29
2023-07-10T06:42:09.803Z,25.59
2023-07-10T06:47:03.031Z,25.70
2023-07-10T06:51:56.228Z,25.92
2023-07-10T06:56:52.231Z,26.13
2023-07-10T07:01:45.504Z,26.42
2023-07-10T07:06:39.590Z,26.52
2023-07-10T07:11:32.844Z,26.72
2023-07-10T07:16:27.652Z,26.74
2023-07-10T07:21:20.923Z,26.51
2023-07-10T07:26:15.139Z,26.85
2023-07-10T07:31:08.651Z,27.19
2023-07-10T07:36:05.634Z,27.30
2023-07-10T07:41:00.543Z,27.18
2023-07-10T07:45:56.228Z,26.97
2023-07-10T07:51:05.330Z,27.57
2023-07-10T07:55:58.954Z,27.54
2023-07-10T08:00:52.971Z,27.22
2023-07-10T08:05:46.267Z,28.14
2023-07-10T08:10:44.216Z,27.70
2023-07-10T08:15:40.063Z,28.65
2023-07-10T08:21:19.598Z,29.49
2023-07-10T08:26:14.275Z,30.07
2023-07-10T08:31:07.675Z,30.81
2023-07-10T08:36:06.065Z,31.46
2023-07-10T08:41:17.550Z,31.68
2023-07-10T08:46:17.040Z,32.63
2023-07-10T08:51:24.821Z,32.93
2023-07-10T08:56:28.281Z,33.09
2023-07-10T09:01:37.571Z,32.96
2023-07-10T09:06:41.908Z,33.30
2023-07-10T09:11:35.541Z,34.01
2023-07-10T09:16:36.266Z,33.64
2023-07-10T09:21:34.292Z,33.78
2023-07-10T09:26:30.239Z,34.22
2023-07-10T09:31:36.183Z,34.02
2023-07-10T09:36:30.335Z,34.42
2023-07-10T09:41:25.315Z,34.32
2023-07-10T09:46:18.764Z,34.15
2023-07-10T09:51:14.836Z,34.84
2023-07-10T09:56:08.355Z,35.13
2023-07-10T10:01:03.242Z,35.27
2023-07-10T10:05:58.441Z,35.14
2023-07-10T10:11:05.642Z,35.51
2023-07-10T10:16:14.752Z,35.68
2023-07-10T10:21:08.155Z,35.50
2023-07-10T10:26:24.518Z,35.97
2023-07-10T10:31:26.121Z,36.57
2023-07-10T10:36:30.848Z,36.61
2023-07-10T10:41:44.523Z,36.99
2023-07-10T10:46:56.285Z,37.24
2023-07-10T10:51:57.691Z,37.64
2023-07-10T10:57:04.594Z,37.08
2023-07-10T11:02:29.079Z,38.35
2023-07-10T11:07:28.582Z,38.68
2023-07-10T11:12:25.754Z,39.23
2023-07-10T11:17:19.694Z,39.14
2023-07-10T11:22:21.147Z,38.73
2023-07-10T11:27:28.630Z,38.78
2023-07-10T11:32:27.165Z,39.19
2023-07-10T11:38:05.644Z,37.87
2023-07-10T11:43:24.929Z,37.08
2023-07-10T11:48:44.249Z,37.91
2023-07-10T11:53:37.828Z,37.55
2023-07-10T11:58:38.586Z,37.21
2023-07-10T12:03:36.967Z,37.82
2023-07-10T12:08:42.895Z,38.04
2023-07-10T12:13:45.144Z,38.65
2023-07-10T12:19:07.871Z,37.56
2023-07-10T12:24:16.041Z,37.33
2023-07-10T12:29:13.899Z,36.20
2023-07-10T12:34:07.835Z,34.90
2023-07-10T12:39:05.420Z,34.98
2023-07-10T12:44:00.512Z,34.20
2023-07-10T12:48:58.055Z,34.39
2023-07-10T12:53:51.954Z,35.12
2023-07-10T12:58:49.629Z,36.54
2023-07-10T13:03:43.064Z,36.91
2023-07-10T13:08:39.968Z,38.00
2023-07-10T13:13:39.037Z,39.20
2023-07-10T13:18:37.269Z,39.64
2023-07-10T13:23:30.963Z,38.69
2023-07-10T13:28:40.158Z,37.38
2023-07-10T13:33:41.467Z,36.78
2023-07-10T13:38:34.856Z,36.90
2023-07-10T13:43:29.484Z,37.08
2023-07-10T13:48:22.937Z,36.07
2023-07-10T13:53:20.832Z,35.76
2023-07-10T13:58:19.042Z,35.45
2023-07-10T14:03:13.769Z,36.14
2023-07-10T14:08:24.512Z,37.52
2023-07-10T14:13:17.828Z,38.37
2023-07-10T14:18:23.032Z,38.27
2023-07-10T14:23:18.370Z,37.65
2023-07-10T14:28:18.068Z,37.12
2023-07-10T14:33:12.528Z,36.21
2023-07-10T14:38:20.886Z,35.90
2023-07-10T14:43:15.313Z,36.00
2023-07-10T14:48:19.360Z,35.84
2023-07-10T14:53:17.421Z,35.86
2023-07-10T15:33:59.442Z,33.86
2023-07-10T15:38:54.124Z,33.87
2023-07-10T15:43:47.424Z,33.60
2023-07-10T15:48:42.269Z,33.31
2023-07-10T15:53:37.081Z,32.96
2023-07-10T15:58:30.507Z,32.86
2023-07-10T16:03:26.909Z,32.77
2023-07-10T16:08:22.280Z,32.77
2023-07-10T16:13:19.524Z,32.70
2023-07-10T16:18:17.595Z,32.43
2023-07-10T16:23:18.688Z,32.33
2023-07-10T16:28:15.359Z,32.44
2023-07-10T16:33:16.889Z,32.42
2023-07-10T16:38:16.738Z,32.28
2023-07-10T16:43:17.082Z,32.27
2023-07-10T16:48:15.574Z,32.15
2023-07-10T16:53:14.084Z,32.13
2023-07-10T16:58:10.726Z,32.07
2023-07-10T17:03:04.205Z,31.93
2023-07-10T17:08:00.331Z,31.74
2023-07-10T17:12:54.484Z,31.86
2023-07-10T17:17:47.841Z,31.62
2023-07-10T17:22:41.285Z,31.63
2023-07-10T17:27:36.088Z,31.67
2023-07-10T17:32:29.472Z,31.61
2023-07-10T17:37:24.997Z,31.54
2023-07-10T17:42:21.659Z,31.47
2023-07-10T17:47:18.078Z,31.34
2023-07-10T17:52:16.993Z,31.30
2023-07-10T17:57:15.075Z,31.21
2023-07-10T18:02:30.185Z,31.08
2023-07-10T18:07:23.996Z,30.86
2023-07-10T18:12:20.557Z,30.78
2023-07-10T18:17:15.698Z,30.72
2023-07-10T18:22:14.727Z,30.55
2023-07-10T18:27:17.010Z,30.43
2023-07-10T18:32:15.974Z,30.19
2023-07-10T18:37:13.952Z,29.92
2023-07-10T18:42:07.882Z,29.92
2023-07-10T18:47:01.207Z,29.65
2023-07-10T18:51:54.824Z,29.53
2023-07-10T18:56:49.964Z,28.75
2023-07-10T19:01:43.331Z,29.20
2023-07-10T19:06:41.420Z,29.03
2023-07-10T19:11:35.985Z,28.94
2023-07-10T19:16:31.522Z,28.75
2023-07-10T19:21:24.969Z,28.73
2023-07-10T19:26:18.381Z,28.54
2023-07-10T19:31:18.738Z,28.40
2023-07-10T19:36:15.298Z,28.30
2023-07-10T19:41:10.450Z,28.30
2023-07-10T19:46:05.024Z,28.10
2023-07-10T19:50:58.699Z,28.19
2023-07-10T19:55:55.880Z,28.08
2023-07-10T20:00:49.406Z,27.96
2023-07-10T20:05:42.898Z,27.29
2023-07-10T20:10:37.355Z,27.85
2023-07-10T20:15:32.026Z,27.73
2023-07-10T20:20:28.297Z,27.78
2023-07-10T20:25:22.156Z,27.84
2023-07-10T20:30:20.807Z,27.77
2023-07-10T20:35:17.399Z,27.71
2023-07-10T20:40:15.535Z,27.71
2023-07-10T20:45:13.935Z,26.85
2023-07-10T20:50:13.870Z,27.60
2023-07-10T20:55:13.764Z,27.55
2023-07-10T21:00:09.076Z,27.42
2023-07-10T21:05:02.481Z,27.41
2023-07-10T21:09:56.415Z,27.00
2023-07-10T21:14:51.603Z,27.21
2023-07-10T21:19:45.670Z,27.08
2023-07-10T21:24:39.504Z,26.95
2023-07-10T21:29:33.270Z,26.90
2023-07-10T21:34:30.664Z,26.89
2023-07-10T21:39:24.319Z,26.78
2023-07-10T21:44:22.224Z,26.72
2023-07-10T21:49:16.445Z,26.81
2023-07-10T21:54:11.913Z,26.53
2023-07-10T21:59:08.175Z,26.76
2023-07-10T22:04:02.975Z,26.69
2023-07-10T22:08:57.743Z,26.53
2023-07-10T22:13:52.750Z,26.40
2023-07-10T22:18:47.257Z,26.63
2023-07-10T22:23:40.731Z,26.55
2023-07-10T22:28:35.481Z,26.40
2023-07-10T22:33:34.193Z,26.41
2023-07-10T22:38:27.462Z,26.25
2023-07-10T22:43:26.109Z,26.03
2023-07-10T22:48:19.360Z,25.94
2023-07-10T22:53:18.769Z,25.76
2023-07-10T22:58:12.402Z,25.79
2023-07-10T23:03:15.683Z,25.62
2023-07-10T23:08:10.985Z,25.74
2023-07-10T23:13:06.367Z,25.64
2023-07-10T23:17:59.711Z,25.75
2023-07-10T23:22:54.622Z,25.71
2023-07-10T23:27:47.988Z,25.59
2023-07-10T23:32:42.853Z,25.42
2023-07-10T23:37:36.222Z,25.38
2023-07-10T23:42:29.676Z,25.30
2023-07-10T23:47:23.092Z,25.20
2023-07-10T23:52:17.805Z,25.35
2023-07-10T23:57:12.404Z,24.71
